Time;durP1;ratioP1;P1;durP2;ratioP2;P2;SDS_P1;SDS_P2;PMS_P1;PMS_P2;Temp;Humidity;BMP_temperature;BMP_pressure;BME280_temperature;BME280_humidity;BME280_pressure;Samples;Min_cycle;Max_cycle;Signal;HPM_P1;HPM_P2
2022/05/28 00:01:34;;;;;;;3.20;2.90;;;;;;;;;;5059955;28;20221;-67
2022/05/28 00:04:04;;;;;;;3.07;2.83;;;;;;;;;;5061823;28;20211;-66
2022/05/28 00:06:34;;;;;;;3.43;2.80;;;;;;;;;;5057648;28;20228;-66
2022/05/28 00:09:01;;;;;;;3.13;2.83;;;;;;;;;;5070673;28;20247;-66
2022/05/28 00:11:31;;;;;;;4.70;3.00;;;;;;;;;;5070784;28;20251;-66
2022/05/28 00:13:58;;;;;;;3.83;2.93;;;;;;;;;;5054559;28;20217;-66
2022/05/28 00:16:25;;;;;;;3.07;2.77;;;;;;;;;;5051364;28;20228;-66
2022/05/28 00:18:53;;;;;;;3.30;2.97;;;;;;;;;;5066206;28;20240;-67
2022/05/28 00:21:22;;;;;;;3.30;3.00;;;;;;;;;;5051349;28;20354;-68
2022/05/28 00:23:49;;;;;;;4.70;2.90;;;;;;;;;;5050414;28;20261;-67
2022/05/28 00:26:18;;;;;;;3.37;2.90;;;;;;;;;;5085394;28;20200;-67
2022/05/28 00:28:45;;;;;;;4.70;3.20;;;;;;;;;;5063281;28;20208;-67
2022/05/28 00:31:13;;;;;;;3.10;2.90;;;;;;;;;;5057714;28;20248;-68
2022/05/28 00:33:41;;;;;;;4.67;3.10;;;;;;;;;;5070440;28;20271;-67
2022/05/28 00:36:10;;;;;;;3.77;2.80;;;;;;;;;;5055116;28;20221;-66
2022/05/28 00:38:39;;;;;;;3.40;3.10;;;;;;;;;;5056340;28;20213;-67
2022/05/28 00:41:07;;;;;;;6.23;2.90;;;;;;;;;;5081557;28;20650;-66
2022/05/28 00:43:35;;;;;;;3.20;2.90;;;;;;;;;;5086568;27;20208;-66
2022/05/28 00:46:08;;;;;;;3.57;3.27;;;;;;;;;;5055940;28;20212;-66
2022/05/28 00:48:38;;;;;;;3.40;3.10;;;;;;;;;;5055745;28;21130;-66
2022/05/28 00:51:07;;;;;;;4.40;2.80;;;;;;;;;;5071285;28;20234;-66
2022/05/28 00:53:34;;;;;;;3.33;3.03;;;;;;;;;;5050524;28;20255;-66
2022/05/28 00:56:03;;;;;;;3.47;3.17;;;;;;;;;;5052723;28;20201;-66
2022/05/28 00:58:31;;;;;;;3.60;3.30;;;;;;;;;;5067197;28;20283;-66
2022/05/28 01:00:59;;;;;;;4.60;3.07;;;;;;;;;;5057621;28;20229;-65
2022/05/28 01:03:33;;;;;;;3.47;3.17;;;;;;;;;;5059109;28;20200;-66
2022/05/28 01:06:04;;;;;;;3.67;3.37;;;;;;;;;;5070950;28;20214;-65
2022/05/28 01:08:51;;;;;;;4.03;3.43;;;;;;;;;;5076040;28;20213;-65
2022/05/28 01:11:29;;;;;;;3.07;2.77;;;;;;;;;;5061074;28;20244;-67
2022/05/28 01:14:02;;;;;;;4.90;3.27;;;;;;;;;;5055852;28;20196;-66
2022/05/28 01:16:29;;;;;;;3.37;3.17;;;;;;;;;;5059997;28;20221;-66
2022/05/28 01:19:01;;;;;;;3.70;3.10;;;;;;;;;;5066376;28;20262;-66
2022/05/28 01:21:43;;;;;;;3.93;3.20;;;;;;;;;;5093744;28;20241;-66
2022/05/28 01:24:17;;;;;;;5.33;3.50;;;;;;;;;;5073262;28;20197;-66
2022/05/28 01:26:44;;;;;;;5.43;3.40;;;;;;;;;;5053750;28;20250;-65
2022/05/28 01:29:15;;;;;;;4.97;4.10;;;;;;;;;;5060225;28;20601;-68
2022/05/28 01:31:43;;;;;;;6.83;4.33;;;;;;;;;;5073142;28;20902;-68
2022/05/28 01:34:10;;;;;;;6.07;5.07;;;;;;;;;;5057011;28;20678;-68
2022/05/28 01:36:39;;;;;;;5.97;5.27;;;;;;;;;;5047141;28;20254;-67
2022/05/28 01:39:07;;;;;;;6.40;5.37;;;;;;;;;;5052772;28;20208;-69
2022/05/28 01:41:36;;;;;;;7.13;5.17;;;;;;;;;;5047322;28;20224;-69
2022/05/28 01:44:04;;;;;;;9.53;5.73;;;;;;;;;;5071206;28;20209;-65
2022/05/28 01:46:32;;;;;;;10.23;6.20;;;;;;;;;;5069586;28;20241;-65
2022/05/28 01:49:00;;;;;;;11.27;7.23;;;;;;;;;;5068818;28;20229;-68
2022/05/28 01:51:31;;;;;;;16.47;7.63;;;;;;;;;;5061294;28;20221;-66
2022/05/28 01:54:11;;;;;;;11.87;8.53;;;;;;;;;;5058047;28;20205;-67
2022/05/28 01:56:42;;;;;;;11.83;6.57;;;;;;;;;;5074122;28;20215;-68
2022/05/28 01:59:11;;;;;;;10.47;6.33;;;;;;;;;;5078693;28;20233;-67
2022/05/28 02:01:39;;;;;;;8.67;6.80;;;;;;;;;;5068709;28;20279;-65
2022/05/28 02:04:07;;;;;;;9.30;6.10;;;;;;;;;;5071603;28;20197;-66
2022/05/28 02:06:35;;;;;;;11.10;6.37;;;;;;;;;;5049366;28;20252;-66
2022/05/28 02:09:07;;;;;;;11.07;5.90;;;;;;;;;;5052722;28;20208;-69
2022/05/28 02:11:43;;;;;;;10.40;6.33;;;;;;;;;;5056302;28;20244;-68
2022/05/28 02:14:13;;;;;;;10.50;7.40;;;;;;;;;;5076258;28;20219;-69
2022/05/28 02:16:50;;;;;;;8.80;6.07;;;;;;;;;;5083226;28;20225;-68
2022/05/28 02:19:33;;;;;;;9.57;6.20;;;;;;;;;;5066153;28;20197;-65
2022/05/28 02:22:06;;;;;;;11.63;6.00;;;;;;;;;;5066244;28;20209;-67
2022/05/28 02:24:38;;;;;;;10.17;5.60;;;;;;;;;;5063511;28;20211;-66
2022/05/28 02:27:09;;;;;;;7.87;6.00;;;;;;;;;;5062020;28;20220;-66
2022/05/28 02:29:36;;;;;;;7.73;5.63;;;;;;;;;;5072357;28;20216;-66
2022/05/28 02:32:24;;;;;;;8.80;6.07;;;;;;;;;;5051778;28;20693;-64
2022/05/28 02:34:51;;;;;;;10.37;5.70;;;;;;;;;;5082170;27;20220;-68
2022/05/28 02:37:22;;;;;;;8.13;6.20;;;;;;;;;;5057810;28;20221;-66
2022/05/28 02:39:49;;;;;;;9.57;5.73;;;;;;;;;;5075809;28;20224;-66
2022/05/28 02:42:17;;;;;;;9.23;5.93;;;;;;;;;;5069011;28;20196;-67
2022/05/28 02:44:45;;;;;;;11.13;6.17;;;;;;;;;;5058697;28;20254;-65
2022/05/28 02:47:12;;;;;;;10.97;6.10;;;;;;;;;;5074083;28;20217;-68
2022/05/28 02:49:40;;;;;;;11.23;6.20;;;;;;;;;;5072311;28;20224;-64
2022/05/28 02:52:08;;;;;;;9.60;6.10;;;;;;;;;;5050784;28;20215;-66
2022/05/28 02:54:36;;;;;;;7.07;5.70;;;;;;;;;;5052268;28;21335;-66
2022/05/28 02:57:04;;;;;;;7.13;5.80;;;;;;;;;;5055040;28;20240;-68
2022/05/28 02:59:32;;;;;;;8.07;5.60;;;;;;;;;;5077079;28;20200;-68
2022/05/28 03:02:00;;;;;;;9.27;5.60;;;;;;;;;;5075572;28;20216;-68
2022/05/28 03:04:27;;;;;;;9.93;6.17;;;;;;;;;;5058735;28;20216;-67
2022/05/28 03:06:55;;;;;;;8.27;5.07;;;;;;;;;;5056432;28;20277;-66
2022/05/28 03:09:22;;;;;;;11.83;6.00;;;;;;;;;;5077995;28;20204;-67
2022/05/28 03:11:50;;;;;;;8.20;5.27;;;;;;;;;;5057677;28;20613;-67
2022/05/28 03:14:17;;;;;;;8.30;5.83;;;;;;;;;;5058928;28;20220;-68
2022/05/28 03:16:45;;;;;;;8.20;5.47;;;;;;;;;;5074213;28;20204;-65
2022/05/28 03:19:13;;;;;;;8.77;5.43;;;;;;;;;;5066075;28;20702;-69
2022/05/28 03:21:40;;;;;;;13.87;9.53;;;;;;;;;;5082477;28;20224;-68
2022/05/28 03:24:07;;;;;;;8.50;6.00;;;;;;;;;;5058718;28;20209;-64
2022/05/28 03:26:35;;;;;;;12.33;5.40;;;;;;;;;;5077172;28;20245;-68
2022/05/28 03:29:03;;;;;;;12.63;6.97;;;;;;;;;;5064508;28;20662;-64
2022/05/28 03:31:31;;;;;;;12.83;7.70;;;;;;;;;;5080318;28;20248;-65
2022/05/28 03:34:00;;;;;;;13.80;7.33;;;;;;;;;;5062434;28;20866;-67
2022/05/28 03:36:28;;;;;;;9.67;6.50;;;;;;;;;;5077877;28;20224;-68
2022/05/28 03:38:56;;;;;;;11.30;6.93;;;;;;;;;;5061377;28;20221;-67
2022/05/28 03:41:24;;;;;;;12.33;7.03;;;;;;;;;;5068169;28;20220;-68
2022/05/28 03:43:51;;;;;;;14.67;7.30;;;;;;;;;;5062979;28;20209;-65
2022/05/28 03:46:27;;;;;;;12.17;7.50;;;;;;;;;;5073884;28;20666;-63
2022/05/28 03:48:57;;;;;;;10.70;6.83;;;;;;;;;;5075838;28;21317;-64
2022/05/28 03:51:25;;;;;;;11.10;7.37;;;;;;;;;;5067363;28;20224;-65
2022/05/28 03:53:52;;;;;;;12.20;7.30;;;;;;;;;;5071042;28;20217;-68
2022/05/28 03:56:20;;;;;;;12.13;7.33;;;;;;;;;;5054242;28;20204;-66
2022/05/28 03:58:50;;;;;;;11.40;6.90;;;;;;;;;;5084013;27;20293;-66
2022/05/28 04:01:18;;;;;;;13.57;7.57;;;;;;;;;;5076351;28;20736;-65
2022/05/28 04:03:45;;;;;;;15.33;8.83;;;;;;;;;;5054398;28;20698;-68
2022/05/28 04:06:13;;;;;;;11.67;6.63;;;;;;;;;;5074911;28;20205;-68
2022/05/28 04:08:41;;;;;;;8.70;6.07;;;;;;;;;;5057792;28;20305;-65
2022/05/28 04:11:08;;;;;;;12.83;6.90;;;;;;;;;;5058597;28;20233;-63
2022/05/28 04:13:36;;;;;;;35.53;16.57;;;;;;;;;;5078884;28;20698;-65
2022/05/28 04:16:03;;;;;;;12.73;6.17;;;;;;;;;;5063629;28;20205;-68
2022/05/28 04:18:31;;;;;;;12.37;4.93;;;;;;;;;;5052654;28;20233;-67
2022/05/28 04:20:58;;;;;;;9.07;4.00;;;;;;;;;;5060221;28;20583;-68
2022/05/28 04:23:25;;;;;;;8.90;3.80;;;;;;;;;;5076792;28;20224;-65
2022/05/28 04:25:53;;;;;;;9.47;3.83;;;;;;;;;;5058321;28;20831;-65
2022/05/28 04:28:21;;;;;;;9.57;3.70;;;;;;;;;;5054441;28;20201;-65
2022/05/28 04:30:55;;;;;;;12.40;3.77;;;;;;;;;;5056826;28;20232;-68
2022/05/28 04:33:22;;;;;;;8.73;3.93;;;;;;;;;;5061619;28;20834;-68
2022/05/28 04:35:50;;;;;;;10.30;3.90;;;;;;;;;;5067147;28;20571;-68
2022/05/28 04:38:17;;;;;;;11.13;4.03;;;;;;;;;;5058193;28;20231;-65
2022/05/28 04:40:45;;;;;;;8.23;3.60;;;;;;;;;;5073823;28;20311;-69
2022/05/28 04:43:13;;;;;;;7.80;3.50;;;;;;;;;;5057497;28;20604;-69
2022/05/28 04:45:40;;;;;;;11.20;4.87;;;;;;;;;;5081201;28;20698;-69
2022/05/28 04:48:09;;;;;;;15.73;6.10;;;;;;;;;;5065293;28;20209;-68
2022/05/28 04:50:37;;;;;;;15.73;5.30;;;;;;;;;;5079420;28;20339;-66
2022/05/28 04:53:04;;;;;;;10.27;3.40;;;;;;;;;;5073511;28;20216;-66
2022/05/28 04:55:32;;;;;;;8.50;3.20;;;;;;;;;;5078499;28;20285;-68
2022/05/28 04:57:59;;;;;;;7.40;3.40;;;;;;;;;;5091243;27;20282;-67
2022/05/28 05:00:27;;;;;;;7.00;3.10;;;;;;;;;;5079857;28;20225;-66
2022/05/28 05:02:54;;;;;;;7.50;3.17;;;;;;;;;;5058494;28;20205;-66
2022/05/28 05:05:22;;;;;;;6.50;3.30;;;;;;;;;;5076234;28;20212;-68
2022/05/28 05:07:49;;;;;;;12.70;3.53;;;;;;;;;;5055888;28;20213;-68
2022/05/28 05:10:16;;;;;;;7.60;3.17;;;;;;;;;;5070619;28;20297;-67
2022/05/28 05:12:44;;;;;;;9.60;3.73;;;;;;;;;;5059628;28;20201;-67
2022/05/28 05:15:12;;;;;;;10.90;3.00;;;;;;;;;;5062250;28;20282;-66
2022/05/28 05:17:39;;;;;;;7.30;3.70;;;;;;;;;;5082378;28;20221;-68
2022/05/28 05:20:07;;;;;;;7.87;2.90;;;;;;;;;;5076694;28;20225;-69
2022/05/28 05:22:35;;;;;;;5.50;2.43;;;;;;;;;;5060292;28;20209;-68
2022/05/28 05:25:02;;;;;;;8.40;2.33;;;;;;;;;;5072543;28;20205;-70
2022/05/28 05:27:32;;;;;;;5.27;1.90;;;;;;;;;;5074490;28;20209;-68
2022/05/28 05:30:00;;;;;;;4.40;2.00;;;;;;;;;;5052834;28;20414;-69
2022/05/28 05:32:28;;;;;;;5.37;2.00;;;;;;;;;;5086187;28;20209;-68
2022/05/28 05:34:56;;;;;;;5.05;1.90;;;;;;;;;;5071671;28;20201;-67
2022/05/28 05:37:23;;;;;;;5.57;1.90;;;;;;;;;;5056599;28;20316;-70
2022/05/28 05:39:51;;;;;;;3.78;1.83;;;;;;;;;;5056752;28;20722;-67
2022/05/28 05:42:18;;;;;;;5.32;2.10;;;;;;;;;;5069255;28;20270;-68
2022/05/28 05:44:46;;;;;;;4.68;1.80;;;;;;;;;;5062920;28;20602;-68
2022/05/28 05:47:13;;;;;;;4.68;1.58;;;;;;;;;;5052907;28;20204;-69
2022/05/28 05:49:41;;;;;;;3.60;1.70;;;;;;;;;;5073554;28;20625;-68
2022/05/28 05:52:08;;;;;;;5.93;2.30;;;;;;;;;;5081421;28;20205;-67
2022/05/28 05:54:36;;;;;;;4.95;1.90;;;;;;;;;;5067598;28;20641;-68
2022/05/28 05:57:03;;;;;;;8.20;3.00;;;;;;;;;;5058524;28;20216;-68
2022/05/28 05:59:31;;;;;;;5.95;2.20;;;;;;;;;;5056012;28;20258;-68
2022/05/28 06:01:58;;;;;;;9.60;4.10;;;;;;;;;;5069034;28;20205;-67
2022/05/28 06:04:26;;;;;;;6.20;2.92;;;;;;;;;;5082732;27;20205;-69
2022/05/28 06:06:54;;;;;;;5.03;1.85;;;;;;;;;;5088239;28;20216;-70
2022/05/28 06:09:21;;;;;;;4.93;2.22;;;;;;;;;;5081802;28;20250;-68
2022/05/28 06:11:49;;;;;;;5.35;1.95;;;;;;;;;;5058478;28;20677;-67
2022/05/28 06:14:16;;;;;;;6.45;2.28;;;;;;;;;;5059740;28;20205;-68
2022/05/28 06:16:45;;;;;;;6.47;1.90;;;;;;;;;;5079801;28;20209;-68
2022/05/28 06:19:14;;;;;;;4.77;1.90;;;;;;;;;;5074176;28;20225;-68
2022/05/28 06:21:41;;;;;;;5.63;2.30;;;;;;;;;;5068540;28;20225;-67
2022/05/28 06:24:09;;;;;;;5.10;1.67;;;;;;;;;;5057772;28;20212;-69
2022/05/28 06:26:37;;;;;;;5.43;1.87;;;;;;;;;;5055777;28;20201;-67
2022/05/28 06:29:05;;;;;;;6.43;2.40;;;;;;;;;;5060732;28;20208;-68
2022/05/28 06:31:32;;;;;;;7.27;2.97;;;;;;;;;;5063771;28;20650;-66
2022/05/28 06:34:00;;;;;;;5.43;1.87;;;;;;;;;;5063736;28;20301;-66
2022/05/28 06:36:27;;;;;;;5.67;1.90;;;;;;;;;;5065026;28;20298;-67
2022/05/28 06:38:54;;;;;;;4.17;2.60;;;;;;;;;;5078075;28;20301;-68
2022/05/28 06:41:22;;;;;;;5.27;1.80;;;;;;;;;;5076973;28;20216;-69
2022/05/28 06:43:51;;;;;;;6.23;1.97;;;;;;;;;;5059039;28;20236;-68
2022/05/28 06:46:18;;;;;;;7.80;2.20;;;;;;;;;;5059635;28;20208;-68
2022/05/28 06:48:47;;;;;;;5.57;2.00;;;;;;;;;;5062530;28;20220;-68
2022/05/28 06:51:14;;;;;;;7.13;2.00;;;;;;;;;;5063199;28;20232;-69
2022/05/28 06:53:48;;;;;;;6.23;2.20;;;;;;;;;;5052083;28;20219;-64
2022/05/28 06:56:16;;;;;;;3.87;1.70;;;;;;;;;;5070334;28;20216;-68
2022/05/28 06:58:45;;;;;;;6.30;1.73;;;;;;;;;;5085502;28;20228;-68
2022/05/28 07:01:14;;;;;;;5.40;1.60;;;;;;;;;;5057193;28;20229;-67
2022/05/28 07:03:43;;;;;;;7.20;1.70;;;;;;;;;;5087500;27;20752;-68
2022/05/28 07:06:11;;;;;;;5.87;2.00;;;;;;;;;;5069719;28;20231;-67
2022/05/28 07:08:39;;;;;;;4.87;2.20;;;;;;;;;;5061156;28;20669;-68
2022/05/28 07:11:08;;;;;;;8.13;2.00;;;;;;;;;;5053730;28;20273;-65
2022/05/28 07:13:36;;;;;;;7.83;2.30;;;;;;;;;;5051743;28;20217;-64
2022/05/28 07:16:05;;;;;;;9.47;2.27;;;;;;;;;;5060372;28;20668;-68
2022/05/28 07:18:34;;;;;;;8.23;3.17;;;;;;;;;;5049211;28;20235;-65
2022/05/28 07:21:02;;;;;;;5.37;1.97;;;;;;;;;;5070623;28;20236;-67
2022/05/28 07:23:29;;;;;;;8.60;2.60;;;;;;;;;;5059028;28;20250;-68
2022/05/28 07:25:59;;;;;;;5.90;1.80;;;;;;;;;;5061392;28;20197;-72
2022/05/28 07:28:31;;;;;;;5.47;2.00;;;;;;;;;;5065392;28;20612;-68
2022/05/28 07:30:58;;;;;;;4.70;2.03;;;;;;;;;;5046525;28;20306;-66
2022/05/28 07:33:26;;;;;;;4.30;1.60;;;;;;;;;;5043839;28;20225;-66
2022/05/28 07:35:55;;;;;;;5.50;3.33;;;;;;;;;;5053803;28;20262;-67
2022/05/28 07:38:22;;;;;;;5.23;1.60;;;;;;;;;;5068027;28;20228;-68
2022/05/28 07:40:50;;;;;;;3.20;1.70;;;;;;;;;;5072430;28;20239;-65
2022/05/28 07:43:18;;;;;;;3.67;1.70;;;;;;;;;;5048529;28;20858;-68
2022/05/28 07:45:46;;;;;;;9.00;2.07;;;;;;;;;;5074640;28;20213;-68
2022/05/28 07:48:14;;;;;;;6.43;1.70;;;;;;;;;;5070605;28;20219;-67
2022/05/28 07:50:42;;;;;;;4.83;2.10;;;;;;;;;;5045502;28;20225;-67
2022/05/28 07:53:09;;;;;;;9.70;2.67;;;;;;;;;;5060376;28;20223;-67
2022/05/28 07:55:37;;;;;;;5.23;1.70;;;;;;;;;;5073601;28;20687;-66
2022/05/28 07:58:06;;;;;;;4.20;2.47;;;;;;;;;;5060208;28;20262;-67
2022/05/28 08:00:37;;;;;;;3.40;1.40;;;;;;;;;;5055979;28;20312;-67
2022/05/28 08:03:04;;;;;;;3.73;1.50;;;;;;;;;;5065902;28;20229;-68
2022/05/28 08:05:32;;;;;;;4.07;1.90;;;;;;;;;;5076067;28;20208;-68
2022/05/28 08:07:59;;;;;;;3.80;1.93;;;;;;;;;;5057814;28;20208;-67
2022/05/28 08:10:30;;;;;;;4.47;1.70;;;;;;;;;;5059062;28;20224;-69
2022/05/28 08:13:01;;;;;;;3.77;1.50;;;;;;;;;;5056592;28;20674;-68
2022/05/28 08:15:29;;;;;;;4.63;1.43;;;;;;;;;;5069093;28;20212;-65
2022/05/28 08:17:56;;;;;;;2.03;1.20;;;;;;;;;;5077624;28;20254;-68
2022/05/28 08:23:08;;;;;;;4.10;1.37;;;;;;;;;;5051445;28;20235;-67
2022/05/28 08:23:12;;;;;;;3.47;1.37;;;;;;;;;;5076230;28;20207;-68
2022/05/28 08:25:40;;;;;;;4.23;1.60;;;;;;;;;;5055183;28;20229;-67
2022/05/28 08:28:09;;;;;;;5.40;1.60;;;;;;;;;;5063582;28;20224;-67
2022/05/28 08:30:38;;;;;;;3.23;1.30;;;;;;;;;;5073373;28;20756;-67
2022/05/28 08:33:06;;;;;;;2.80;1.50;;;;;;;;;;5073547;28;20200;-68
2022/05/28 08:35:34;;;;;;;4.73;1.50;;;;;;;;;;5061136;28;20193;-68
2022/05/28 08:38:05;;;;;;;3.20;1.50;;;;;;;;;;5055954;28;20201;-66
2022/05/28 08:40:37;;;;;;;2.60;1.30;;;;;;;;;;5050552;28;20680;-68
2022/05/28 08:43:04;;;;;;;3.73;1.27;;;;;;;;;;5056263;28;20242;-68
2022/05/28 08:45:33;;;;;;;2.67;1.30;;;;;;;;;;5056769;28;20213;-67
2022/05/28 08:48:01;;;;;;;3.93;1.90;;;;;;;;;;5050132;28;20713;-66
2022/05/28 08:50:29;;;;;;;5.63;1.60;;;;;;;;;;5075821;28;20233;-67
2022/05/28 08:53:07;;;;;;;5.67;1.43;;;;;;;;;;5069501;28;20201;-67
2022/05/28 08:55:40;;;;;;;3.60;1.47;;;;;;;;;;5053405;28;20678;-67
2022/05/28 08:58:14;;;;;;;4.20;1.37;;;;;;;;;;5057404;28;20201;-66
2022/05/28 09:00:49;;;;;;;2.97;1.23;;;;;;;;;;5069935;28;20275;-68
2022/05/28 09:03:16;;;;;;;2.97;1.20;;;;;;;;;;5058351;28;20208;-67
2022/05/28 09:05:47;;;;;;;4.23;1.30;;;;;;;;;;5075312;28;20205;-68
2022/05/28 09:08:15;;;;;;;2.70;1.40;;;;;;;;;;5066907;28;20747;-67
2022/05/28 09:10:48;;;;;;;6.07;1.50;;;;;;;;;;5075820;28;20774;-68
2022/05/28 09:13:25;;;;;;;3.43;1.53;;;;;;;;;;5053272;28;20200;-67
2022/05/28 09:15:53;;;;;;;3.17;1.33;;;;;;;;;;5058740;28;20681;-67
2022/05/28 09:18:21;;;;;;;1.90;1.23;;;;;;;;;;5060127;28;20196;-66
2022/05/28 09:20:48;;;;;;;2.30;1.20;;;;;;;;;;5069090;28;20728;-67
2022/05/28 09:23:16;;;;;;;2.50;1.20;;;;;;;;;;5053804;28;20212;-67
2022/05/28 09:25:46;;;;;;;3.17;1.70;;;;;;;;;;5056548;28;20557;-67
2022/05/28 09:28:22;;;;;;;3.37;1.30;;;;;;;;;;5058260;28;20204;-68
2022/05/28 09:31:03;;;;;;;2.87;1.47;;;;;;;;;;5090622;28;20301;-67
2022/05/28 09:33:36;;;;;;;1.77;1.40;;;;;;;;;;5082833;28;20205;-68
2022/05/28 09:36:22;;;;;;;3.40;1.23;;;;;;;;;;5071388;28;20378;-68
2022/05/28 09:38:50;;;;;;;4.27;1.30;;;;;;;;;;5083606;28;20227;-67
2022/05/28 09:41:20;;;;;;;4.57;1.70;;;;;;;;;;5060366;28;20295;-67
2022/05/28 09:43:48;;;;;;;3.80;1.63;;;;;;;;;;5085463;28;20201;-67
2022/05/28 09:46:24;;;;;;;2.33;1.23;;;;;;;;;;5056172;28;20662;-68
2022/05/28 09:48:58;;;;;;;3.97;1.50;;;;;;;;;;5076162;28;20554;-68
2022/05/28 09:51:27;;;;;;;3.27;1.63;;;;;;;;;;5079065;28;22926;-68
2022/05/28 09:54:21;;;;;;;4.47;1.67;;;;;;;;;;5056879;28;20336;-67
2022/05/28 09:56:59;;;;;;;6.17;2.80;;;;;;;;;;5050866;28;20782;-68
2022/05/28 09:59:49;;;;;;;2.33;1.50;;;;;;;;;;5083987;28;20601;-68
2022/05/28 10:02:35;;;;;;;3.70;1.53;;;;;;;;;;5068329;28;20837;-67
2022/05/28 10:05:20;;;;;;;3.03;1.03;;;;;;;;;;5061679;28;20578;-68
2022/05/28 10:07:52;;;;;;;2.57;1.40;;;;;;;;;;5087168;28;20208;-68
2022/05/28 10:10:20;;;;;;;1.67;1.10;;;;;;;;;;5067601;28;20685;-67
2022/05/28 10:12:49;;;;;;;2.00;1.10;;;;;;;;;;5064707;28;20205;-67
2022/05/28 10:15:21;;;;;;;2.75;1.25;;;;;;;;;;5069193;28;20205;-68
2022/05/28 10:17:53;;;;;;;2.20;1.10;;;;;;;;;;5055204;28;20216;-67
2022/05/28 10:20:21;;;;;;;1.80;1.40;;;;;;;;;;5065713;28;20249;-68
2022/05/28 10:22:51;;;;;;;2.28;1.02;;;;;;;;;;5062846;28;20209;-68
2022/05/28 10:25:32;;;;;;;3.40;1.20;;;;;;;;;;5065661;28;20201;-68
2022/05/28 10:28:00;;;;;;;1.95;1.63;;;;;;;;;;5060235;28;20716;-68
2022/05/28 10:30:30;;;;;;;3.58;2.08;;;;;;;;;;5063396;28;20706;-68
2022/05/28 10:32:58;;;;;;;1.50;1.40;;;;;;;;;;5088636;28;20731;-67
2022/05/28 10:35:27;;;;;;;2.78;1.60;;;;;;;;;;5061463;28;20244;-67
2022/05/28 10:38:05;;;;;;;3.95;1.42;;;;;;;;;;5079715;28;20208;-67
2022/05/28 10:40:33;;;;;;;3.47;1.55;;;;;;;;;;5080815;28;20228;-68
2022/05/28 10:43:12;;;;;;;2.45;1.30;;;;;;;;;;5076102;28;20400;-67
2022/05/28 10:45:43;;;;;;;2.55;1.70;;;;;;;;;;5057031;28;20258;-67
2022/05/28 10:48:19;;;;;;;3.55;1.65;;;;;;;;;;5075337;28;20197;-67
2022/05/28 10:50:52;;;;;;;2.53;1.17;;;;;;;;;;5060830;28;20228;-68
2022/05/28 10:53:31;;;;;;;1.80;1.20;;;;;;;;;;5063365;28;20626;-67
2022/05/28 10:56:24;;;;;;;2.90;1.20;;;;;;;;;;5078976;28;20220;-67
2022/05/28 10:58:55;;;;;;;4.25;1.17;;;;;;;;;;5036890;28;20228;-68
2022/05/28 11:01:30;;;;;;;1.83;1.10;;;;;;;;;;5060493;28;20228;-67
2022/05/28 11:04:21;;;;;;;2.22;1.10;;;;;;;;;;5075839;28;20283;-68
2022/05/28 11:07:01;;;;;;;4.10;1.40;;;;;;;;;;5038607;28;20209;-68
2022/05/28 11:09:36;;;;;;;3.40;1.08;;;;;;;;;;5085316;28;20208;-68
2022/05/28 11:12:14;;;;;;;4.45;1.52;;;;;;;;;;5069536;28;20820;-68
2022/05/28 11:14:58;;;;;;;4.30;1.30;;;;;;;;;;5078949;28;20667;-66
2022/05/28 11:17:37;;;;;;;1.63;1.00;;;;;;;;;;5070938;28;20216;-68
2022/05/28 11:20:11;;;;;;;2.47;1.50;;;;;;;;;;5066059;28;20701;-68
2022/05/28 11:22:58;;;;;;;3.13;1.17;;;;;;;;;;5052356;28;20233;-66
2022/05/28 11:25:28;;;;;;;3.35;1.35;;;;;;;;;;5059466;28;20200;-68
2022/05/28 11:28:04;;;;;;;2.25;1.10;;;;;;;;;;5056069;28;20751;-68
2022/05/28 11:30:34;;;;;;;2.15;1.20;;;;;;;;;;5061135;28;20639;-66
2022/05/28 11:33:04;;;;;;;4.90;1.38;;;;;;;;;;5053231;28;20865;-68
2022/05/28 11:35:39;;;;;;;1.83;1.05;;;;;;;;;;5070927;28;20321;-68
2022/05/28 11:38:09;;;;;;;4.03;1.20;;;;;;;;;;5066028;28;20203;-68
2022/05/28 11:40:42;;;;;;;1.42;1.10;;;;;;;;;;5055689;28;20596;-67
2022/05/28 11:43:19;;;;;;;2.53;1.20;;;;;;;;;;5081672;28;20262;-67
2022/05/28 11:45:52;;;;;;;3.75;1.65;;;;;;;;;;5057802;28;20205;-65
2022/05/28 11:48:24;;;;;;;2.80;1.40;;;;;;;;;;5066379;28;20678;-67
2022/05/28 11:53:47;;;;;;;3.63;1.52;;;;;;;;;;5083266;28;20270;-66
2022/05/28 11:56:15;;;;;;;2.17;1.13;;;;;;;;;;5066358;28;20213;-68
2022/05/28 11:58:52;;;;;;;2.17;1.10;;;;;;;;;;5083996;28;20224;-66
2022/05/28 12:01:28;;;;;;;1.67;1.00;;;;;;;;;;5086948;28;20470;-68
2022/05/28 12:03:55;;;;;;;4.13;1.30;;;;;;;;;;5064691;28;20696;-67
2022/05/28 12:06:31;;;;;;;2.33;1.40;;;;;;;;;;5061926;28;20209;-65
2022/05/28 12:09:02;;;;;;;3.73;1.20;;;;;;;;;;5079411;28;20214;-67
2022/05/28 12:11:38;;;;;;;2.75;1.30;;;;;;;;;;5067301;28;20237;-68
2022/05/28 12:14:26;;;;;;;4.93;1.25;;;;;;;;;;5100057;27;20578;-66
2022/05/28 12:17:07;;;;;;;3.10;1.17;;;;;;;;;;5079090;28;20245;-68
2022/05/28 12:19:35;;;;;;;2.60;1.15;;;;;;;;;;5095253;27;20220;-66
2022/05/28 12:22:08;;;;;;;5.57;1.20;;;;;;;;;;5082763;28;20209;-66
2022/05/28 12:24:40;;;;;;;4.03;1.15;;;;;;;;;;5066728;28;20205;-65
2022/05/28 12:27:19;;;;;;;2.97;1.10;;;;;;;;;;5066342;28;20713;-66
2022/05/28 12:29:55;;;;;;;2.80;1.48;;;;;;;;;;5069263;28;20693;-68
2022/05/28 12:32:23;;;;;;;2.25;1.25;;;;;;;;;;5083337;28;20222;-65
2022/05/28 12:35:07;;;;;;;3.65;1.30;;;;;;;;;;5081761;28;20304;-68
2022/05/28 12:37:35;;;;;;;2.35;1.25;;;;;;;;;;5077887;28;20694;-67
2022/05/28 12:40:05;;;;;;;3.75;1.45;;;;;;;;;;5065547;28;20233;-67
2022/05/28 12:42:36;;;;;;;4.78;1.30;;;;;;;;;;5080887;28;20204;-67
2022/05/28 12:45:32;;;;;;;2.88;1.30;;;;;;;;;;5052940;28;20339;-66
2022/05/28 12:48:06;;;;;;;9.25;1.42;;;;;;;;;;5059833;28;20205;-65
2022/05/28 12:50:48;;;;;;;3.70;1.30;;;;;;;;;;5076349;28;20300;-67
2022/05/28 12:53:20;;;;;;;3.83;1.30;;;;;;;;;;5083303;28;20201;-65
2022/05/28 12:55:58;;;;;;;6.75;1.40;;;;;;;;;;5085082;27;20303;-66
2022/05/28 12:58:28;;;;;;;5.00;1.45;;;;;;;;;;5074421;28;20208;-67
2022/05/28 13:00:57;;;;;;;3.38;1.27;;;;;;;;;;5060077;28;20289;-68
2022/05/28 13:03:27;;;;;;;1.52;1.13;;;;;;;;;;5075510;28;20908;-68
2022/05/28 13:06:05;;;;;;;2.80;1.10;;;;;;;;;;5062052;28;20208;-66
2022/05/28 13:08:33;;;;;;;4.32;1.20;;;;;;;;;;5081131;28;20266;-68
2022/05/28 13:11:05;;;;;;;4.35;1.70;;;;;;;;;;5085855;28;20241;-66
2022/05/28 13:13:52;;;;;;;3.05;1.23;;;;;;;;;;5083515;28;20254;-66
2022/05/28 13:16:25;;;;;;;3.00;1.25;;;;;;;;;;5063910;28;20235;-66
2022/05/28 13:19:11;;;;;;;2.22;1.08;;;;;;;;;;5064439;28;20215;-68
2022/05/28 13:22:02;;;;;;;3.03;1.40;;;;;;;;;;5084094;28;20228;-68
2022/05/28 13:24:39;;;;;;;3.92;1.40;;;;;;;;;;5045380;28;20215;-68
2022/05/28 13:27:22;;;;;;;1.20;1.02;;;;;;;;;;5062096;28;20790;-67
2022/05/28 13:30:05;;;;;;;4.35;1.15;;;;;;;;;;5067991;28;20224;-68
2022/05/28 13:32:42;;;;;;;4.90;1.30;;;;;;;;;;5078305;28;20230;-68
2022/05/28 13:35:12;;;;;;;3.63;1.60;;;;;;;;;;5058595;28;20201;-67
2022/05/28 13:37:41;;;;;;;3.10;1.40;;;;;;;;;;5064167;28;20213;-67
2022/05/28 13:40:12;;;;;;;5.15;1.58;;;;;;;;;;5060274;28;20232;-67
2022/05/28 13:42:39;;;;;;;6.18;2.70;;;;;;;;;;5082081;28;20196;-68
2022/05/28 13:45:08;;;;;;;3.33;1.13;;;;;;;;;;5062158;28;20254;-68
2022/05/28 13:47:41;;;;;;;5.10;1.80;;;;;;;;;;5057396;28;20621;-68
2022/05/28 13:50:11;;;;;;;1.45;1.05;;;;;;;;;;5056509;28;20227;-66
2022/05/28 13:52:42;;;;;;;4.10;1.65;;;;;;;;;;5076987;28;20201;-68
2022/05/28 13:55:10;;;;;;;4.68;1.73;;;;;;;;;;5075692;28;20217;-67
2022/05/28 13:57:40;;;;;;;3.78;1.27;;;;;;;;;;5087458;28;20205;-67
2022/05/28 14:00:11;;;;;;;2.60;1.40;;;;;;;;;;5079959;28;20239;-65
2022/05/28 14:02:40;;;;;;;3.92;1.35;;;;;;;;;;5059849;28;20208;-68
2022/05/28 14:05:08;;;;;;;4.00;1.27;;;;;;;;;;5056575;28;21376;-67
2022/05/28 14:07:41;;;;;;;3.28;1.20;;;;;;;;;;5056328;28;20205;-68
2022/05/28 14:10:19;;;;;;;3.20;1.27;;;;;;;;;;5072660;28;20268;-66
2022/05/28 14:12:49;;;;;;;1.15;1.05;;;;;;;;;;5076976;28;20213;-67
2022/05/28 14:15:21;;;;;;;1.67;1.10;;;;;;;;;;5068801;28;20254;-68
2022/05/28 14:17:49;;;;;;;3.40;1.30;;;;;;;;;;5063564;28;20215;-66
2022/05/28 14:20:32;;;;;;;2.50;1.38;;;;;;;;;;5085282;28;20224;-67
2022/05/28 14:23:04;;;;;;;5.30;1.40;;;;;;;;;;5069259;28;20204;-64
2022/05/28 14:25:34;;;;;;;2.00;1.08;;;;;;;;;;5064900;28;20258;-66
2022/05/28 14:28:06;;;;;;;1.40;1.27;;;;;;;;;;5071929;28;20209;-66
2022/05/28 14:30:34;;;;;;;1.95;1.30;;;;;;;;;;5063548;28;20279;-66
2022/05/28 14:33:02;;;;;;;3.88;1.20;;;;;;;;;;5069998;28;20223;-66
2022/05/28 14:35:37;;;;;;;1.85;0.98;;;;;;;;;;5081739;28;20212;-65
2022/05/28 14:38:06;;;;;;;3.08;1.15;;;;;;;;;;5080898;28;20261;-68
2022/05/28 14:40:35;;;;;;;2.28;1.27;;;;;;;;;;5081847;28;20225;-68
2022/05/28 14:43:03;;;;;;;3.35;1.35;;;;;;;;;;5062002;28;20257;-67
2022/05/28 14:45:32;;;;;;;3.08;1.17;;;;;;;;;;5062483;28;20271;-67
2022/05/28 14:48:01;;;;;;;4.93;1.35;;;;;;;;;;5071169;28;20212;-65
2022/05/28 14:50:30;;;;;;;2.47;1.20;;;;;;;;;;5064164;28;20236;-67
2022/05/28 14:52:58;;;;;;;2.03;1.40;;;;;;;;;;5080820;28;20250;-67
2022/05/28 14:55:33;;;;;;;3.25;1.83;;;;;;;;;;5064674;28;20611;-67
2022/05/28 14:58:06;;;;;;;1.55;1.00;;;;;;;;;;5079327;28;20296;-67
2022/05/28 15:00:36;;;;;;;2.78;1.25;;;;;;;;;;5078712;28;20233;-68
2022/05/28 15:03:14;;;;;;;1.15;0.90;;;;;;;;;;5060083;28;20257;-66
2022/05/28 15:05:42;;;;;;;8.65;5.70;;;;;;;;;;5066897;28;20604;-67